This is the latest recevied weather packets stored in our database for station/object LZ3DJ-10. If no packets are shown the sender has not sent any weather packets the latest 10 day(s).
| Time | Temp. | Humidity | Pressure | Rain* | Wind** | Luminosity | Snow |
|---|---|---|---|---|---|---|---|
| 1787623206 | 17.78° C | 87% | 1014.7 hPa | 0 mm | 0 m/s | - | - |
| 1787622305 | 18.33° C | 85% | 1014.7 hPa | 0 mm | 0 m/s | - | - |
| 1787621405 | 18.33° C | 84% | 1014.9 hPa | 0 mm | 0 m/s | - | - |
| 1787620506 | 18.89° C | 82% | 1014.8 hPa | 0 mm | 0 m/s | - | - |
| 1787619606 | 18.33° C | 83% | 1015.2 hPa | 0 mm | 0.45 m/s, 132° | - | - |
| 1787618705 | 18.89° C | 86% | 1015.4 hPa | 0 mm | 0 m/s | - | - |
| 1787617806 | 19.44° C | 83% | 1015.1 hPa | 0 mm | 0 m/s | - | - |
| 1787616905 | 19.44° C | 81% | 1015 hPa | 0 mm | 0 m/s | - | - |
| 1787616006 | 18.89° C | 86% | 1015.2 hPa | 0 mm | 0 m/s | - | - |
| 1787615105 | 18.89° C | 84% | 1015.1 hPa | 0 mm | 0 m/s | - | - |
| 1787614206 | 19.44° C | 82% | 1015 hPa | 0 mm | 0 m/s | - | - |
| 1787613305 | 18.89° C | 83% | 1015.2 hPa | 0 mm | 0 m/s | - | - |
| 1787612405 | 18.89° C | 85% | 1015.3 hPa | 0 mm | 0 m/s | - | - |
| 1787611506 | 19.44° C | 83% | 1015.4 hPa | 0 mm | 0 m/s | - | - |
| 1787610605 | 18.89° C | 86% | 1015.4 hPa | 0 mm | 0 m/s | - | - |
| 1787609706 | 19.44° C | 84% | 1015.2 hPa | 0 mm | 0 m/s | - | - |
| 1787608806 | 19.44° C | 85% | 1015.2 hPa | 0 mm | 0 m/s | - | - |
| 1787607906 | 19.44° C | 83% | 1015.1 hPa | 0 mm | 0 m/s | - | - |
| 1787607006 | 20° C | 82% | 1015 hPa | 0 mm | 0 m/s | - | - |
| 1787606105 | 20° C | 82% | 1014.8 hPa | 0 mm | 0 m/s | - | - |
| 1787605205 | 20.56° C | 79% | 1014.6 hPa | 0 mm | 0 m/s | - | - |
| 1787604306 | 21.11° C | 75% | 1014.4 hPa | 0 mm | 0 m/s | - | - |
| 1787603405 | 21.11° C | 79% | 1014.4 hPa | 0 mm | 0 m/s | - | - |
| 1787602506 | 21.11° C | 80% | 1014.2 hPa | 0 mm | 0 m/s | - | - |
| 1787601606 | 21.67° C | 78% | 1014.1 hPa | 0 mm | 0 m/s | - | - |
* Rain latest hour (hover to see other rain measurements)
** Current wind speed in m/s (hover to see current wind gust speed)